createdAt,value
2018-09-29T00:00:20.141Z,18.60
2018-09-29T00:02:49.410Z,19.00
2018-09-29T00:05:19.020Z,15.50
2018-09-29T00:07:48.639Z,14.70
2018-09-29T00:10:17.796Z,14.60
2018-09-29T00:12:46.872Z,14.30
2018-09-29T00:15:15.999Z,15.10
2018-09-29T00:17:45.048Z,15.90
2018-09-29T00:20:14.097Z,15.10
2018-09-29T00:22:43.126Z,16.20
2018-09-29T00:25:12.240Z,16.70
2018-09-29T00:27:41.463Z,16.20
2018-09-29T00:30:10.701Z,16.90
2018-09-29T00:32:39.490Z,16.60
2018-09-29T00:35:08.270Z,17.70
2018-09-29T00:37:37.035Z,17.70
2018-09-29T00:40:05.858Z,17.40
2018-09-29T00:42:34.642Z,17.80
2018-09-29T00:45:03.553Z,17.70
2018-09-29T00:47:32.356Z,18.10
2018-09-29T00:50:01.162Z,18.20
2018-09-29T00:52:29.940Z,18.60
2018-09-29T00:54:58.749Z,19.00
2018-09-29T00:57:27.505Z,19.90
2018-09-29T00:59:56.269Z,20.10
2018-09-29T01:02:25.046Z,20.70
2018-09-29T01:04:54.160Z,20.90
2018-09-29T01:07:24.119Z,21.00
2018-09-29T01:09:53.302Z,21.30
2018-09-29T01:12:22.317Z,21.80
2018-09-29T01:14:51.357Z,21.60
2018-09-29T01:17:20.430Z,21.90
2018-09-29T01:19:49.545Z,21.70
2018-09-29T01:22:18.853Z,22.20
2018-09-29T01:24:50.179Z,22.10
2018-09-29T01:27:19.347Z,22.10
2018-09-29T01:29:48.771Z,22.50
2018-09-29T01:32:17.985Z,22.10
2018-09-29T01:34:47.079Z,22.20
2018-09-29T01:37:19.504Z,22.20
2018-09-29T01:39:48.690Z,22.50
2018-09-29T01:42:17.712Z,22.40
2018-09-29T01:44:47.027Z,22.20
2018-09-29T01:47:16.133Z,22.10
2018-09-29T01:49:45.392Z,22.10
2018-09-29T01:52:14.453Z,22.40
2018-09-29T01:54:43.557Z,21.40
2018-09-29T01:57:12.582Z,21.50
2018-09-29T01:59:41.593Z,20.90
2018-09-29T02:02:11.486Z,20.70
2018-09-29T02:04:40.529Z,20.40
2018-09-29T02:07:10.536Z,20.50
2018-09-29T02:09:39.569Z,20.70
2018-09-29T02:12:08.338Z,20.50
2018-09-29T02:14:37.137Z,19.90
2018-09-29T02:17:05.986Z,20.20
2018-09-29T02:19:35.864Z,19.60
2018-09-29T02:22:04.631Z,19.00
2018-09-29T02:24:33.426Z,18.90
2018-09-29T02:27:02.277Z,18.70
2018-09-29T02:29:31.026Z,19.20
2018-09-29T02:32:01.801Z,19.20
2018-09-29T02:34:30.932Z,19.00
2018-09-29T02:37:01.239Z,19.60
2018-09-29T02:39:30.388Z,19.60
2018-09-29T02:41:59.481Z,19.60
2018-09-29T02:44:29.057Z,19.50
2018-09-29T02:46:58.817Z,19.70
2018-09-29T02:49:27.852Z,19.90
2018-09-29T02:51:56.974Z,19.50
2018-09-29T02:54:26.087Z,20.00
2018-09-29T02:56:55.397Z,20.20
2018-09-29T02:59:24.609Z,20.20
2018-09-29T03:01:53.728Z,20.50
2018-09-29T03:04:22.734Z,20.20
2018-09-29T03:06:51.549Z,20.20
2018-09-29T03:09:20.417Z,20.00
2018-09-29T03:11:49.215Z,19.80
2018-09-29T03:14:17.986Z,19.90
2018-09-29T03:16:46.780Z,20.20
2018-09-29T03:19:15.574Z,20.30
2018-09-29T03:21:44.372Z,19.90
2018-09-29T03:24:13.362Z,19.50
2018-09-29T03:26:42.143Z,19.60
2018-09-29T03:29:10.905Z,19.80
2018-09-29T03:31:39.763Z,20.00
2018-09-29T03:34:08.704Z,19.50
2018-09-29T03:36:38.338Z,19.00
2018-09-29T03:39:08.941Z,18.90
2018-09-29T03:41:37.992Z,19.20
2018-09-29T03:44:06.904Z,19.50
2018-09-29T03:46:35.685Z,19.60
2018-09-29T03:49:04.502Z,18.80
2018-09-29T03:51:33.274Z,18.90
2018-09-29T03:54:02.445Z,18.90
2018-09-29T03:56:31.278Z,19.20
2018-09-29T03:59:00.073Z,19.10
2018-09-29T04:01:28.910Z,19.20
2018-09-29T04:03:57.701Z,19.30
2018-09-29T04:06:26.965Z,19.80
2018-09-29T04:08:55.742Z,20.40
2018-09-29T04:11:24.557Z,20.70
2018-09-29T04:13:53.360Z,21.40
2018-09-29T04:16:22.147Z,21.90
2018-09-29T04:18:51.231Z,22.20
2018-09-29T04:21:20.022Z,22.30
2018-09-29T04:23:48.932Z,22.60
2018-09-29T04:26:17.745Z,22.90
2018-09-29T04:28:46.571Z,22.80
2018-09-29T04:31:16.627Z,23.10
2018-09-29T04:33:45.399Z,22.80
2018-09-29T04:36:14.188Z,22.80
2018-09-29T04:38:43.092Z,23.40
2018-09-29T04:41:11.874Z,23.60
2018-09-29T04:43:40.658Z,22.90
2018-09-29T04:46:09.665Z,23.30
2018-09-29T04:48:39.377Z,23.10
2018-09-29T04:51:08.178Z,22.90
2018-09-29T04:53:36.938Z,23.30
2018-09-29T04:56:05.736Z,22.80
2018-09-29T04:58:34.968Z,23.10
2018-09-29T05:01:04.753Z,23.40
2018-09-29T05:03:33.529Z,23.40
2018-09-29T05:06:02.704Z,23.40
2018-09-29T05:08:31.837Z,23.70
2018-09-29T05:11:00.653Z,23.30
2018-09-29T05:13:29.813Z,23.60
2018-09-29T05:15:58.955Z,23.50
2018-09-29T05:18:27.977Z,23.90
2018-09-29T05:20:56.771Z,23.50
2018-09-29T05:23:25.548Z,23.50
2018-09-29T05:26:08.274Z,23.30
2018-09-29T05:28:39.651Z,22.90
2018-09-29T05:31:14.525Z,22.90
2018-09-29T05:33:49.613Z,22.10
2018-09-29T05:36:19.594Z,21.40
2018-09-29T05:38:52.231Z,21.40
2018-09-29T05:41:29.485Z,21.10
2018-09-29T05:44:12.103Z,20.50
2018-09-29T05:49:38.678Z,19.80
2018-09-29T05:52:07.907Z,19.60
2018-09-29T05:54:58.874Z,19.30
2018-09-29T06:00:50.457Z,18.20
2018-09-29T06:03:28.358Z,18.00
2018-09-29T06:06:07.126Z,17.60
2018-09-29T06:08:54.406Z,17.00
2018-09-29T06:11:28.441Z,17.00
2018-09-29T06:14:04.983Z,16.80
2018-09-29T06:17:08.994Z,16.60
2018-09-29T06:19:48.776Z,17.60
2018-09-29T06:22:29.438Z,17.70
2018-09-29T06:25:05.473Z,16.30
2018-09-29T06:27:42.780Z,15.70
2018-09-29T06:30:26.712Z,16.10
2018-09-29T06:33:04.194Z,16.20
2018-09-29T06:35:45.546Z,15.90
2018-09-29T06:38:38.540Z,16.10
2018-09-29T06:41:07.886Z,15.80
2018-09-29T06:43:37.107Z,15.80
2018-09-29T06:46:06.518Z,16.20
2018-09-29T06:48:35.659Z,15.50
2018-09-29T06:51:04.637Z,15.20
2018-09-29T06:53:34.932Z,15.30
2018-09-29T06:56:03.999Z,15.30
2018-09-29T06:58:33.027Z,14.90
2018-09-29T07:01:02.063Z,15.30
2018-09-29T07:03:31.013Z,15.10
2018-09-29T07:06:00.179Z,15.00
2018-09-29T07:08:29.136Z,14.30
2018-09-29T07:10:58.268Z,13.60
2018-09-29T07:13:27.370Z,12.70
2018-09-29T07:15:56.585Z,12.30
2018-09-29T07:18:25.613Z,11.80
2018-09-29T07:20:54.713Z,10.90
2018-09-29T07:23:23.502Z,10.20
2018-09-29T07:28:17.341Z,9.10
2018-09-29T07:30:46.367Z,6.90
2018-09-29T07:33:15.498Z,6.00
2018-09-29T07:35:44.574Z,5.20
2018-09-29T07:38:13.801Z,4.70
2018-09-29T07:40:42.914Z,3.90
2018-09-29T07:43:11.744Z,3.50
2018-09-29T07:45:40.673Z,3.40
2018-09-29T07:48:09.477Z,2.90
2018-09-29T07:50:38.668Z,2.50
2018-09-29T07:53:07.747Z,2.50
2018-09-29T07:55:36.679Z,2.30
2018-09-29T07:58:06.397Z,2.90
2018-09-29T08:00:35.393Z,2.70
2018-09-29T08:03:04.752Z,2.60
2018-09-29T08:05:33.817Z,2.80
2018-09-29T08:08:02.936Z,2.90
2018-09-29T08:10:31.961Z,3.40
2018-09-29T08:13:01.061Z,3.10
2018-09-29T08:15:30.188Z,3.30
2018-09-29T08:17:59.398Z,3.20
2018-09-29T08:20:29.405Z,2.90
2018-09-29T08:22:58.657Z,3.00
2018-09-29T08:25:27.767Z,3.10
2018-09-29T08:27:56.761Z,3.50
2018-09-29T08:30:25.939Z,3.30
2018-09-29T08:32:55.011Z,3.30
2018-09-29T08:35:24.007Z,3.10
2018-09-29T08:37:53.767Z,2.70
2018-09-29T08:40:23.060Z,2.20
2018-09-29T08:42:52.059Z,1.80
2018-09-29T08:45:21.246Z,1.70
2018-09-29T08:47:50.486Z,1.60
2018-09-29T08:50:21.356Z,1.20
2018-09-29T08:52:50.350Z,1.00
2018-09-29T08:55:19.461Z,1.00
2018-09-29T08:57:48.463Z,1.00
2018-09-29T09:00:17.682Z,1.00
2018-09-29T09:02:46.691Z,1.00
2018-09-29T09:05:15.747Z,1.00
2018-09-29T09:07:44.832Z,1.00
2018-09-29T09:10:14.593Z,1.00
2018-09-29T09:12:43.766Z,1.00
2018-09-29T09:15:12.773Z,1.70
2018-09-29T09:17:41.895Z,1.00
2018-09-29T09:20:11.027Z,1.00
2018-09-29T09:22:40.010Z,1.40
2018-09-29T09:25:09.034Z,1.50
2018-09-29T09:27:44.544Z,1.80
2018-09-29T09:30:20.082Z,1.90
2018-09-29T09:32:58.085Z,1.90
2018-09-29T09:35:29.152Z,1.60
2018-09-29T09:38:01.173Z,1.70
2018-09-29T09:40:32.009Z,1.80
2018-09-29T09:43:13.839Z,2.20
2018-09-29T09:45:45.851Z,1.90
2018-09-29T09:48:26.450Z,1.50
2018-09-29T09:50:57.949Z,1.20
2018-09-29T09:53:39.787Z,1.00
2018-09-29T09:56:21.849Z,1.40
2018-09-29T09:58:56.332Z,1.10
2018-09-29T10:01:30.637Z,1.80
2018-09-29T10:03:59.778Z,1.60
2018-09-29T10:06:28.893Z,1.40
2018-09-29T10:08:57.797Z,1.50
2018-09-29T10:12:56.202Z,1.00
2018-09-29T10:15:25.006Z,1.00
2018-09-29T10:17:53.808Z,1.00
2018-09-29T10:20:23.421Z,1.00
2018-09-29T10:22:52.285Z,1.00
2018-09-29T10:25:34.648Z,1.00
2018-09-29T10:31:06.276Z,1.00
2018-09-29T10:36:47.653Z,1.00
2018-09-29T10:39:29.089Z,1.00
2018-09-29T10:42:05.342Z,1.00
2018-09-29T10:54:32.064Z,1.00
2018-09-29T10:57:00.874Z,1.00
2018-09-29T10:59:30.208Z,1.00
2018-09-29T11:01:59.028Z,1.00
2018-09-29T11:04:27.852Z,1.00
2018-09-29T11:06:56.635Z,1.00
2018-09-29T11:09:25.462Z,1.00
2018-09-29T11:11:54.270Z,1.00
2018-09-29T11:14:23.081Z,1.00
2018-09-29T11:16:51.885Z,1.00
2018-09-29T11:19:20.739Z,1.00
2018-09-29T11:21:49.635Z,1.00
2018-09-29T11:24:20.155Z,1.00
2018-09-29T11:26:49.073Z,1.00
2018-09-29T11:29:18.142Z,1.00
2018-09-29T11:31:47.326Z,1.00
2018-09-29T11:34:22.599Z,1.00
2018-09-29T11:36:53.695Z,1.00
2018-09-29T11:39:26.992Z,1.00
2018-09-29T11:42:42.643Z,1.00
2018-09-29T11:45:35.504Z,1.00
2018-09-29T11:48:10.857Z,1.00
2018-09-29T11:50:55.747Z,1.10
2018-09-29T11:53:48.490Z,1.10
2018-09-29T11:56:27.170Z,1.90
2018-09-29T11:59:12.474Z,3.00
2018-09-29T12:04:48.570Z,1.90
2018-09-29T12:07:26.119Z,2.40
2018-09-29T12:10:08.471Z,2.20
2018-09-29T12:13:18.793Z,3.10
2018-09-29T12:15:56.544Z,3.20
2018-09-29T12:27:24.917Z,3.70
2018-09-29T12:29:50.262Z,3.90
2018-09-29T12:32:21.053Z,4.20
2018-09-29T12:34:50.454Z,3.90
2018-09-29T12:37:20.231Z,4.60
2018-09-29T12:39:49.280Z,3.90
2018-09-29T12:42:18.260Z,4.10
2018-09-29T12:44:47.440Z,4.30
2018-09-29T12:47:16.512Z,4.40
2018-09-29T12:49:45.518Z,4.50
2018-09-29T12:52:14.724Z,4.00
2018-09-29T12:54:44.077Z,4.80
2018-09-29T12:57:13.184Z,4.90
2018-09-29T12:59:42.365Z,4.60
2018-09-29T13:02:11.688Z,5.40
2018-09-29T13:04:40.804Z,5.30
2018-09-29T13:07:09.899Z,5.00
2018-09-29T13:09:39.039Z,5.80
2018-09-29T13:12:08.049Z,5.00
2018-09-29T13:14:37.138Z,5.40
2018-09-29T13:17:06.364Z,4.60
2018-09-29T13:19:35.569Z,5.00
2018-09-29T13:22:06.853Z,4.60
2018-09-29T13:24:35.934Z,4.80
2018-09-29T13:27:05.060Z,4.70
2018-09-29T13:29:34.172Z,5.10
2018-09-29T13:32:03.426Z,5.70
2018-09-29T13:34:32.497Z,5.90
2018-09-29T13:37:01.734Z,5.20
2018-09-29T13:39:30.725Z,4.80
2018-09-29T13:41:59.939Z,5.80
2018-09-29T13:44:29.058Z,5.30
2018-09-29T13:46:58.072Z,5.20
2018-09-29T13:49:27.177Z,5.80
2018-09-29T13:51:57.162Z,6.20
2018-09-29T13:54:26.215Z,5.60
2018-09-29T13:56:55.162Z,5.60
2018-09-29T13:59:24.566Z,5.80
2018-09-29T14:01:54.787Z,5.50
2018-09-29T14:04:23.842Z,5.40
2018-09-29T14:06:52.912Z,5.90
2018-09-29T14:09:22.647Z,6.40
2018-09-29T14:11:51.767Z,6.90
2018-09-29T14:14:20.990Z,7.30
2018-09-29T14:16:50.195Z,7.20
2018-09-29T14:19:19.255Z,7.00
2018-09-29T14:21:56.308Z,7.70
2018-09-29T14:24:33.400Z,7.40
2018-09-29T14:27:08.930Z,7.80
2018-09-29T14:29:42.431Z,7.80
2018-09-29T14:32:12.116Z,8.00
2018-09-29T14:34:41.090Z,7.90
2018-09-29T14:37:10.275Z,8.60
2018-09-29T14:39:39.265Z,8.20
2018-09-29T14:42:08.220Z,8.50
2018-09-29T14:44:39.619Z,8.80
2018-09-29T14:47:08.817Z,9.10
2018-09-29T14:49:37.834Z,8.80
2018-09-29T14:52:07.668Z,9.50
2018-09-29T14:54:37.137Z,8.80
2018-09-29T14:57:06.598Z,8.90
2018-09-29T14:59:39.482Z,9.30
2018-09-29T15:02:08.541Z,9.40
2018-09-29T15:04:37.732Z,9.00
2018-09-29T15:07:07.804Z,8.70
2018-09-29T15:09:36.979Z,9.00
2018-09-29T15:12:06.200Z,8.50
2018-09-29T15:14:36.060Z,9.00
2018-09-29T15:17:05.090Z,8.20
2018-09-29T15:19:34.245Z,8.30
2018-09-29T15:22:03.734Z,8.20
2018-09-29T15:24:32.883Z,8.00
2018-09-29T15:27:02.117Z,8.40
2018-09-29T15:29:31.345Z,8.30
2018-09-29T15:32:00.489Z,8.60
2018-09-29T15:34:30.890Z,9.10
2018-09-29T15:37:00.929Z,8.50
2018-09-29T15:39:30.031Z,8.10
2018-09-29T15:41:59.231Z,8.70
2018-09-29T15:44:28.705Z,9.00
2018-09-29T15:46:57.858Z,9.00
2018-09-29T15:49:26.879Z,8.70
2018-09-29T15:51:56.327Z,9.00
2018-09-29T15:54:25.422Z,8.80
2018-09-29T15:56:54.416Z,9.80
2018-09-29T15:59:23.468Z,9.10
2018-09-29T16:01:52.470Z,9.20
2018-09-29T16:04:21.655Z,9.30
2018-09-29T16:06:53.170Z,9.50
2018-09-29T16:09:22.237Z,9.90
2018-09-29T16:11:51.338Z,10.00
2018-09-29T16:14:20.504Z,10.20
2018-09-29T16:16:49.566Z,10.40
2018-09-29T16:19:18.700Z,10.70
2018-09-29T16:21:51.792Z,11.40
2018-09-29T16:24:21.988Z,11.20
2018-09-29T16:26:50.852Z,11.30
2018-09-29T16:29:20.765Z,11.40
2018-09-29T16:31:49.783Z,10.80
2018-09-29T16:34:18.900Z,11.90
2018-09-29T16:38:37.039Z,12.50
2018-09-29T16:41:06.116Z,12.80
2018-09-29T16:43:35.653Z,14.20
2018-09-29T16:46:05.390Z,13.50
2018-09-29T16:48:34.472Z,13.90
2018-09-29T16:51:03.585Z,13.90
2018-09-29T16:53:33.375Z,14.30
2018-09-29T16:56:02.543Z,15.10
2018-09-29T16:58:31.643Z,15.60
2018-09-29T17:03:30.089Z,16.20
2018-09-29T17:05:59.287Z,17.30
2018-09-29T17:08:28.532Z,17.40
2018-09-29T17:10:57.832Z,17.10
2018-09-29T17:13:26.909Z,17.60
2018-09-29T17:15:56.244Z,17.90
2018-09-29T17:18:25.331Z,17.80
2018-09-29T17:20:54.579Z,17.90
2018-09-29T17:23:24.918Z,18.40
2018-09-29T17:25:53.822Z,18.70
2018-09-29T17:28:22.936Z,18.80
2018-09-29T17:30:52.407Z,18.80
2018-09-29T17:33:21.536Z,19.10
2018-09-29T17:35:50.478Z,19.00
2018-09-29T17:38:22.767Z,19.00
2018-09-29T17:40:51.876Z,18.80
2018-09-29T17:43:20.986Z,19.30
2018-09-29T17:45:53.682Z,19.30
2018-09-29T17:48:22.813Z,19.20
2018-09-29T17:50:51.916Z,19.20
2018-09-29T17:53:21.466Z,19.20
2018-09-29T17:55:50.427Z,19.40
2018-09-29T17:58:20.061Z,19.30
2018-09-29T18:00:49.560Z,19.50
2018-09-29T18:03:19.493Z,19.90
2018-09-29T18:05:48.577Z,19.90
2018-09-29T18:08:18.015Z,19.80
2018-09-29T18:10:47.391Z,19.70
2018-09-29T18:13:16.601Z,20.30
2018-09-29T18:15:45.752Z,20.60
2018-09-29T18:18:15.034Z,20.70
2018-09-29T18:20:44.244Z,20.90
2018-09-29T18:23:13.628Z,21.00
2018-09-29T18:25:42.750Z,21.30
2018-09-29T18:28:11.885Z,21.30
2018-09-29T18:30:44.563Z,21.40
2018-09-29T18:33:14.495Z,21.40
2018-09-29T18:35:43.844Z,21.90
2018-09-29T18:38:16.314Z,22.20
2018-09-29T18:40:45.581Z,22.10
2018-09-29T18:43:14.583Z,22.10
2018-09-29T18:45:46.628Z,22.50
2018-09-29T18:48:15.861Z,22.40
2018-09-29T18:50:45.060Z,22.60
2018-09-29T18:53:14.575Z,22.50
2018-09-29T18:55:43.933Z,22.70
2018-09-29T18:58:13.102Z,22.90
2018-09-29T19:00:43.672Z,22.70
2018-09-29T19:03:12.766Z,23.10
2018-09-29T19:05:41.873Z,23.20
2018-09-29T19:08:11.030Z,22.90
2018-09-29T19:10:40.101Z,23.20
2018-09-29T19:13:09.114Z,23.50
2018-09-29T19:15:38.882Z,23.50
2018-09-29T19:18:08.063Z,23.70
2018-09-29T19:20:37.186Z,23.80
2018-09-29T19:23:06.516Z,23.80
2018-09-29T19:25:35.503Z,23.80
2018-09-29T19:28:04.675Z,23.70
2018-09-29T19:30:34.595Z,24.10
2018-09-29T19:33:03.768Z,24.00
2018-09-29T19:35:32.978Z,24.00
2018-09-29T19:38:02.382Z,24.50
2018-09-29T19:40:31.539Z,24.30
2018-09-29T19:43:01.677Z,24.50
2018-09-29T19:45:31.508Z,24.50
2018-09-29T19:48:00.661Z,24.60
2018-09-29T19:50:30.313Z,24.60
2018-09-29T19:53:00.343Z,24.70
2018-09-29T19:55:29.765Z,24.90
2018-09-29T19:57:58.883Z,24.70
2018-09-29T20:00:28.775Z,25.20
2018-09-29T20:02:58.041Z,25.20
2018-09-29T20:05:27.246Z,25.00
2018-09-29T20:07:56.465Z,25.20
2018-09-29T20:10:25.563Z,25.20
2018-09-29T20:12:54.441Z,25.20
2018-09-29T20:15:23.618Z,25.40
2018-09-29T20:17:52.453Z,25.50
2018-09-29T20:20:21.818Z,25.50
2018-09-29T20:22:51.441Z,25.50
2018-09-29T20:25:20.574Z,25.70
2018-09-29T20:27:49.766Z,25.70
2018-09-29T20:30:18.908Z,25.40
2018-09-29T20:32:47.899Z,25.90
2018-09-29T20:35:17.212Z,25.70
2018-09-29T20:37:46.788Z,26.10
2018-09-29T20:40:15.938Z,26.00
2018-09-29T20:42:44.951Z,26.30
2018-09-29T20:45:14.039Z,26.30
2018-09-29T20:47:43.187Z,26.60
2018-09-29T20:50:16.092Z,26.50
2018-09-29T20:52:45.090Z,26.50
2018-09-29T20:55:14.097Z,26.90
2018-09-29T20:57:43.481Z,27.00
2018-09-29T21:00:12.633Z,27.10
2018-09-29T21:02:41.732Z,26.90
2018-09-29T21:05:10.854Z,27.30
2018-09-29T21:07:39.976Z,27.30
2018-09-29T21:10:09.233Z,27.30
2018-09-29T21:12:38.280Z,27.50
2018-09-29T21:15:07.410Z,27.60
2018-09-29T21:17:36.546Z,27.50
2018-09-29T21:20:06.263Z,27.70
2018-09-29T21:22:35.575Z,27.70
2018-09-29T21:25:04.880Z,27.80
2018-09-29T21:27:34.027Z,27.80
2018-09-29T21:30:03.341Z,28.60
2018-09-29T21:32:33.059Z,28.70
2018-09-29T21:35:02.173Z,27.70
2018-09-29T21:37:31.266Z,28.20
2018-09-29T21:40:00.597Z,28.10
2018-09-29T21:42:29.841Z,28.10
2018-09-29T21:44:59.021Z,28.20
2018-09-29T21:47:28.368Z,28.10
2018-09-29T21:49:57.352Z,28.40
2018-09-29T21:52:26.349Z,27.80
2018-09-29T21:54:56.363Z,28.20
2018-09-29T21:57:25.605Z,28.20
2018-09-29T21:59:54.711Z,28.20
2018-09-29T22:02:24.382Z,28.60
2018-09-29T22:04:53.556Z,28.50
2018-09-29T22:07:22.678Z,28.60
2018-09-29T22:09:52.129Z,28.80
2018-09-29T22:12:21.312Z,28.80
2018-09-29T22:14:50.406Z,28.40
2018-09-29T22:17:21.265Z,28.40
2018-09-29T22:19:50.487Z,28.40
2018-09-29T22:22:19.601Z,28.40
2018-09-29T22:24:49.295Z,28.30
2018-09-29T22:27:18.288Z,28.40
2018-09-29T22:29:47.440Z,28.30
2018-09-29T22:32:16.685Z,28.20
2018-09-29T22:34:45.781Z,28.30
2018-09-29T22:37:14.984Z,28.20
2018-09-29T22:39:44.031Z,28.10
2018-09-29T22:42:13.231Z,28.50
2018-09-29T22:44:42.222Z,28.30
2018-09-29T22:47:12.198Z,28.30
2018-09-29T22:49:41.182Z,28.30
2018-09-29T22:52:10.395Z,28.40
2018-09-29T22:54:39.630Z,28.60
2018-09-29T22:57:08.827Z,28.50
2018-09-29T22:59:38.038Z,28.30
2018-09-29T23:02:07.576Z,28.70
2018-09-29T23:04:36.783Z,28.70
2018-09-29T23:07:05.982Z,28.60
2018-09-29T23:09:35.020Z,28.60
2018-09-29T23:12:04.209Z,28.80
2018-09-29T23:14:33.434Z,28.70
2018-09-29T23:17:03.465Z,29.00
2018-09-29T23:19:32.672Z,29.40
2018-09-29T23:22:01.985Z,28.60
2018-09-29T23:24:31.104Z,28.90
2018-09-29T23:27:00.214Z,28.80
2018-09-29T23:29:29.339Z,29.10
2018-09-29T23:31:58.719Z,29.20
2018-09-29T23:34:27.649Z,29.30
2018-09-29T23:36:57.360Z,29.20
2018-09-29T23:39:26.785Z,29.30
2018-09-29T23:41:55.902Z,29.30
2018-09-29T23:44:24.873Z,29.40
2018-09-29T23:46:55.517Z,29.40
2018-09-29T23:49:24.477Z,29.30
2018-09-29T23:51:53.621Z,29.50
2018-09-29T23:54:25.803Z,29.50
2018-09-29T23:56:54.873Z,29.60
2018-09-29T23:59:24.627Z,29.70
